sensor_id;sensor_type;location;lat;lon;timestamp;P1;durP1;ratioP1;P2;durP2;ratioP2
54945;SDS011;40846;44.788;20.486;2023-05-01T00:03:15;31.48;;;17.17;;
54945;SDS011;40846;44.788;20.486;2023-05-01T00:05:42;29.85;;;15.40;;
54945;SDS011;40846;44.788;20.486;2023-05-01T00:08:08;27.48;;;17.02;;
54945;SDS011;40846;44.788;20.486;2023-05-01T00:10:35;33.95;;;18.10;;
54945;SDS011;40846;44.788;20.486;2023-05-01T00:13:02;33.42;;;17.85;;
54945;SDS011;40846;44.788;20.486;2023-05-01T00:15:28;30.40;;;17.55;;
54945;SDS011;40846;44.788;20.486;2023-05-01T00:17:54;31.80;;;17.55;;
54945;SDS011;40846;44.788;20.486;2023-05-01T00:20:21;27.60;;;16.30;;
54945;SDS011;40846;44.788;20.486;2023-05-01T00:22:50;27.60;;;17.15;;
54945;SDS011;40846;44.788;20.486;2023-05-01T00:25:21;28.33;;;16.55;;
54945;SDS011;40846;44.788;20.486;2023-05-01T00:27:47;23.15;;;14.98;;
54945;SDS011;40846;44.788;20.486;2023-05-01T00:30:14;28.27;;;15.80;;
54945;SDS011;40846;44.788;20.486;2023-05-01T00:32:40;25.17;;;16.33;;
54945;SDS011;40846;44.788;20.486;2023-05-01T00:35:06;31.83;;;16.70;;
54945;SDS011;40846;44.788;20.486;2023-05-01T00:37:33;30.92;;;16.67;;
54945;SDS011;40846;44.788;20.486;2023-05-01T00:39:59;27.63;;;17.40;;
54945;SDS011;40846;44.788;20.486;2023-05-01T00:42:25;30.48;;;17.30;;
54945;SDS011;40846;44.788;20.486;2023-05-01T00:44:51;32.25;;;17.75;;
54945;SDS011;40846;44.788;20.486;2023-05-01T00:47:17;26.25;;;17.40;;
54945;SDS011;40846;44.788;20.486;2023-05-01T00:49:43;29.08;;;18.15;;
54945;SDS011;40846;44.788;20.486;2023-05-01T00:52:10;39.58;;;18.33;;
54945;SDS011;40846;44.788;20.486;2023-05-01T00:54:37;31.60;;;17.88;;
54945;SDS011;40846;44.788;20.486;2023-05-01T00:57:04;29.95;;;16.50;;
54945;SDS011;40846;44.788;20.486;2023-05-01T00:59:33;25.45;;;16.42;;
54945;SDS011;40846;44.788;20.486;2023-05-01T01:01:59;29.35;;;17.13;;
54945;SDS011;40846;44.788;20.486;2023-05-01T01:04:26;32.53;;;17.80;;
54945;SDS011;40846;44.788;20.486;2023-05-01T01:07:32;28.23;;;16.90;;
54945;SDS011;40846;44.788;20.486;2023-05-01T01:12:43;27.65;;;15.65;;
54945;SDS011;40846;44.788;20.486;2023-05-01T01:15:32;24.83;;;15.55;;
54945;SDS011;40846;44.788;20.486;2023-05-01T01:20:40;29.10;;;16.55;;
54945;SDS011;40846;44.788;20.486;2023-05-01T01:26:02;30.80;;;16.80;;
54945;SDS011;40846;44.788;20.486;2023-05-01T01:36:33;30.48;;;17.88;;
54945;SDS011;40846;44.788;20.486;2023-05-01T01:39:36;27.30;;;17.85;;
54945;SDS011;40846;44.788;20.486;2023-05-01T01:41:55;33.42;;;20.38;;
54945;SDS011;40846;44.788;20.486;2023-05-01T01:44:27;33.78;;;19.00;;
54945;SDS011;40846;44.788;20.486;2023-05-01T01:47:04;32.20;;;18.08;;
54945;SDS011;40846;44.788;20.486;2023-05-01T01:49:36;31.90;;;18.52;;
54945;SDS011;40846;44.788;20.486;2023-05-01T01:52:03;35.83;;;19.90;;
54945;SDS011;40846;44.788;20.486;2023-05-01T01:54:32;36.10;;;20.17;;
54945;SDS011;40846;44.788;20.486;2023-05-01T01:57:00;37.13;;;20.10;;
54945;SDS011;40846;44.788;20.486;2023-05-01T01:59:28;34.33;;;19.77;;
54945;SDS011;40846;44.788;20.486;2023-05-01T02:01:55;33.33;;;19.63;;
54945;SDS011;40846;44.788;20.486;2023-05-01T02:04:23;38.47;;;22.80;;
54945;SDS011;40846;44.788;20.486;2023-05-01T02:06:50;31.65;;;19.65;;
54945;SDS011;40846;44.788;20.486;2023-05-01T02:09:18;31.90;;;19.27;;
54945;SDS011;40846;44.788;20.486;2023-05-01T02:11:50;35.05;;;19.15;;
54945;SDS011;40846;44.788;20.486;2023-05-01T02:14:17;28.48;;;18.30;;
54945;SDS011;40846;44.788;20.486;2023-05-01T02:16:45;30.00;;;17.23;;
54945;SDS011;40846;44.788;20.486;2023-05-01T02:19:13;33.90;;;19.00;;
54945;SDS011;40846;44.788;20.486;2023-05-01T02:21:41;33.28;;;19.50;;
54945;SDS011;40846;44.788;20.486;2023-05-01T02:24:07;33.05;;;19.58;;
54945;SDS011;40846;44.788;20.486;2023-05-01T02:26:42;34.75;;;18.05;;
54945;SDS011;40846;44.788;20.486;2023-05-01T02:29:09;31.17;;;18.20;;
54945;SDS011;40846;44.788;20.486;2023-05-01T02:31:35;29.98;;;17.33;;
54945;SDS011;40846;44.788;20.486;2023-05-01T02:34:02;34.05;;;18.08;;
54945;SDS011;40846;44.788;20.486;2023-05-01T02:36:28;26.90;;;16.38;;
54945;SDS011;40846;44.788;20.486;2023-05-01T02:38:57;30.98;;;19.00;;
54945;SDS011;40846;44.788;20.486;2023-05-01T02:41:23;25.58;;;16.30;;
54945;SDS011;40846;44.788;20.486;2023-05-01T02:43:52;35.83;;;17.60;;
54945;SDS011;40846;44.788;20.486;2023-05-01T02:46:20;28.75;;;17.27;;
54945;SDS011;40846;44.788;20.486;2023-05-01T02:48:49;29.45;;;17.08;;
54945;SDS011;40846;44.788;20.486;2023-05-01T02:51:15;31.80;;;17.55;;
54945;SDS011;40846;44.788;20.486;2023-05-01T02:53:42;24.42;;;16.33;;
54945;SDS011;40846;44.788;20.486;2023-05-01T02:56:09;28.48;;;18.80;;
54945;SDS011;40846;44.788;20.486;2023-05-01T02:58:35;30.98;;;17.67;;
54945;SDS011;40846;44.788;20.486;2023-05-01T03:01:01;27.33;;;17.45;;
54945;SDS011;40846;44.788;20.486;2023-05-01T03:03:27;29.00;;;17.92;;
54945;SDS011;40846;44.788;20.486;2023-05-01T03:05:53;26.35;;;16.55;;
54945;SDS011;40846;44.788;20.486;2023-05-01T03:08:19;30.48;;;17.02;;
54945;SDS011;40846;44.788;20.486;2023-05-01T03:10:44;25.48;;;17.92;;
54945;SDS011;40846;44.788;20.486;2023-05-01T03:13:10;31.13;;;19.15;;
54945;SDS011;40846;44.788;20.486;2023-05-01T03:15:36;30.33;;;18.55;;
54945;SDS011;40846;44.788;20.486;2023-05-01T03:18:02;27.80;;;17.65;;
54945;SDS011;40846;44.788;20.486;2023-05-01T03:20:28;30.30;;;18.75;;
54945;SDS011;40846;44.788;20.486;2023-05-01T03:22:55;27.05;;;18.73;;
54945;SDS011;40846;44.788;20.486;2023-05-01T03:25:21;33.35;;;19.75;;
54945;SDS011;40846;44.788;20.486;2023-05-01T03:27:47;29.25;;;18.50;;
54945;SDS011;40846;44.788;20.486;2023-05-01T03:30:14;29.73;;;19.80;;
54945;SDS011;40846;44.788;20.486;2023-05-01T03:32:40;33.10;;;19.33;;
54945;SDS011;40846;44.788;20.486;2023-05-01T03:35:05;25.23;;;18.17;;
54945;SDS011;40846;44.788;20.486;2023-05-01T03:37:32;29.33;;;17.77;;
54945;SDS011;40846;44.788;20.486;2023-05-01T03:39:58;31.33;;;18.33;;
54945;SDS011;40846;44.788;20.486;2023-05-01T03:42:24;26.20;;;17.65;;
54945;SDS011;40846;44.788;20.486;2023-05-01T03:44:50;25.85;;;17.40;;
54945;SDS011;40846;44.788;20.486;2023-05-01T03:47:16;29.42;;;18.55;;
54945;SDS011;40846;44.788;20.486;2023-05-01T03:49:43;31.80;;;18.83;;
54945;SDS011;40846;44.788;20.486;2023-05-01T03:52:11;32.85;;;18.75;;
54945;SDS011;40846;44.788;20.486;2023-05-01T03:54:37;26.83;;;17.65;;
54945;SDS011;40846;44.788;20.486;2023-05-01T03:57:03;29.27;;;18.00;;
54945;SDS011;40846;44.788;20.486;2023-05-01T03:59:29;32.72;;;18.63;;
54945;SDS011;40846;44.788;20.486;2023-05-01T04:01:55;25.70;;;16.38;;
54945;SDS011;40846;44.788;20.486;2023-05-01T04:04:20;26.30;;;16.77;;
54945;SDS011;40846;44.788;20.486;2023-05-01T04:06:46;30.58;;;18.85;;
54945;SDS011;40846;44.788;20.486;2023-05-01T04:09:15;24.23;;;16.52;;
54945;SDS011;40846;44.788;20.486;2023-05-01T04:11:42;24.45;;;15.30;;
54945;SDS011;40846;44.788;20.486;2023-05-01T04:14:08;27.10;;;16.70;;
54945;SDS011;40846;44.788;20.486;2023-05-01T04:16:34;23.30;;;16.15;;
54945;SDS011;40846;44.788;20.486;2023-05-01T04:19:01;28.00;;;17.00;;
54945;SDS011;40846;44.788;20.486;2023-05-01T04:21:27;27.75;;;16.70;;
54945;SDS011;40846;44.788;20.486;2023-05-01T04:23:55;24.50;;;16.25;;
54945;SDS011;40846;44.788;20.486;2023-05-01T04:26:22;24.38;;;15.50;;
54945;SDS011;40846;44.788;20.486;2023-05-01T04:28:50;29.30;;;16.67;;
54945;SDS011;40846;44.788;20.486;2023-05-01T04:37:40;31.85;;;16.38;;
54945;SDS011;40846;44.788;20.486;2023-05-01T04:40:07;27.75;;;15.13;;
54945;SDS011;40846;44.788;20.486;2023-05-01T04:42:33;19.48;;;10.85;;
54945;SDS011;40846;44.788;20.486;2023-05-01T04:44:59;11.73;;;8.20;;
54945;SDS011;40846;44.788;20.486;2023-05-01T04:47:28;16.80;;;8.50;;
54945;SDS011;40846;44.788;20.486;2023-05-01T04:49:55;13.10;;;8.60;;
54945;SDS011;40846;44.788;20.486;2023-05-01T04:52:21;14.25;;;7.82;;
54945;SDS011;40846;44.788;20.486;2023-05-01T04:54:47;15.00;;;7.47;;
54945;SDS011;40846;44.788;20.486;2023-05-01T04:57:13;17.38;;;8.10;;
54945;SDS011;40846;44.788;20.486;2023-05-01T04:59:39;11.50;;;7.38;;
54945;SDS011;40846;44.788;20.486;2023-05-01T05:02:05;14.27;;;8.10;;
54945;SDS011;40846;44.788;20.486;2023-05-01T05:04:33;12.32;;;8.07;;
54945;SDS011;40846;44.788;20.486;2023-05-01T05:06:59;13.77;;;9.23;;
54945;SDS011;40846;44.788;20.486;2023-05-01T05:09:25;19.98;;;10.93;;
54945;SDS011;40846;44.788;20.486;2023-05-01T05:11:51;14.60;;;10.38;;
54945;SDS011;40846;44.788;20.486;2023-05-01T05:14:17;18.98;;;9.15;;
54945;SDS011;40846;44.788;20.486;2023-05-01T05:16:43;16.55;;;9.75;;
54945;SDS011;40846;44.788;20.486;2023-05-01T05:19:09;17.02;;;9.15;;
54945;SDS011;40846;44.788;20.486;2023-05-01T05:21:35;17.20;;;10.02;;
54945;SDS011;40846;44.788;20.486;2023-05-01T05:24:01;20.90;;;9.30;;
54945;SDS011;40846;44.788;20.486;2023-05-01T05:26:27;17.15;;;8.60;;
54945;SDS011;40846;44.788;20.486;2023-05-01T05:32:35;14.32;;;9.18;;
54945;SDS011;40846;44.788;20.486;2023-05-01T05:35:02;13.98;;;9.43;;
54945;SDS011;40846;44.788;20.486;2023-05-01T05:37:31;20.38;;;9.02;;
54945;SDS011;40846;44.788;20.486;2023-05-01T05:40:00;15.27;;;9.67;;
54945;SDS011;40846;44.788;20.486;2023-05-01T05:42:26;18.20;;;9.88;;
54945;SDS011;40846;44.788;20.486;2023-05-01T05:44:54;17.30;;;9.27;;
54945;SDS011;40846;44.788;20.486;2023-05-01T05:47:45;21.80;;;9.95;;
54945;SDS011;40846;44.788;20.486;2023-05-01T05:50:19;22.83;;;10.32;;
54945;SDS011;40846;44.788;20.486;2023-05-01T05:56:15;14.75;;;9.77;;
54945;SDS011;40846;44.788;20.486;2023-05-01T06:01:53;13.93;;;10.15;;
54945;SDS011;40846;44.788;20.486;2023-05-01T06:04:19;17.30;;;10.25;;
54945;SDS011;40846;44.788;20.486;2023-05-01T06:06:45;17.85;;;10.00;;
54945;SDS011;40846;44.788;20.486;2023-05-01T06:09:11;14.20;;;9.82;;
54945;SDS011;40846;44.788;20.486;2023-05-01T06:11:38;14.70;;;11.02;;
54945;SDS011;40846;44.788;20.486;2023-05-01T06:14:05;15.90;;;9.40;;
54945;SDS011;40846;44.788;20.486;2023-05-01T06:16:31;23.65;;;9.68;;
54945;SDS011;40846;44.788;20.486;2023-05-01T06:18:58;17.27;;;9.77;;
54945;SDS011;40846;44.788;20.486;2023-05-01T06:21:24;17.27;;;9.95;;
54945;SDS011;40846;44.788;20.486;2023-05-01T06:23:50;13.70;;;9.75;;
54945;SDS011;40846;44.788;20.486;2023-05-01T06:26:16;15.45;;;10.05;;
54945;SDS011;40846;44.788;20.486;2023-05-01T06:28:42;19.08;;;9.88;;
54945;SDS011;40846;44.788;20.486;2023-05-01T06:31:11;13.70;;;9.85;;
54945;SDS011;40846;44.788;20.486;2023-05-01T06:33:45;12.95;;;8.57;;
54945;SDS011;40846;44.788;20.486;2023-05-01T06:36:11;17.30;;;9.68;;
54945;SDS011;40846;44.788;20.486;2023-05-01T06:38:37;14.52;;;9.27;;
54945;SDS011;40846;44.788;20.486;2023-05-01T06:41:19;18.55;;;9.07;;
54945;SDS011;40846;44.788;20.486;2023-05-01T06:44:42;15.75;;;9.90;;
54945;SDS011;40846;44.788;20.486;2023-05-01T06:47:11;13.18;;;8.23;;
54945;SDS011;40846;44.788;20.486;2023-05-01T06:49:44;20.23;;;11.20;;
54945;SDS011;40846;44.788;20.486;2023-05-01T06:52:39;21.50;;;11.98;;
54945;SDS011;40846;44.788;20.486;2023-05-01T06:55:08;24.25;;;11.10;;
54945;SDS011;40846;44.788;20.486;2023-05-01T06:57:34;17.15;;;13.05;;
54945;SDS011;40846;44.788;20.486;2023-05-01T07:00:00;18.52;;;11.60;;
54945;SDS011;40846;44.788;20.486;2023-05-01T07:02:26;16.42;;;10.65;;
54945;SDS011;40846;44.788;20.486;2023-05-01T07:04:52;16.33;;;10.43;;
54945;SDS011;40846;44.788;20.486;2023-05-01T07:07:18;19.95;;;10.35;;
54945;SDS011;40846;44.788;20.486;2023-05-01T07:09:45;23.17;;;9.93;;
54945;SDS011;40846;44.788;20.486;2023-05-01T07:12:13;12.60;;;8.25;;
54945;SDS011;40846;44.788;20.486;2023-05-01T07:14:39;17.50;;;9.75;;
54945;SDS011;40846;44.788;20.486;2023-05-01T07:17:08;14.18;;;10.55;;
54945;SDS011;40846;44.788;20.486;2023-05-01T07:19:36;14.73;;;10.13;;
54945;SDS011;40846;44.788;20.486;2023-05-01T07:22:02;17.25;;;10.30;;
54945;SDS011;40846;44.788;20.486;2023-05-01T07:24:28;18.98;;;11.82;;
54945;SDS011;40846;44.788;20.486;2023-05-01T07:26:54;20.67;;;12.48;;
54945;SDS011;40846;44.788;20.486;2023-05-01T07:29:21;18.80;;;11.48;;
54945;SDS011;40846;44.788;20.486;2023-05-01T07:31:48;16.35;;;10.63;;
54945;SDS011;40846;44.788;20.486;2023-05-01T07:34:14;23.08;;;11.43;;
54945;SDS011;40846;44.788;20.486;2023-05-01T07:36:41;15.00;;;11.48;;
54945;SDS011;40846;44.788;20.486;2023-05-01T07:39:07;15.07;;;10.68;;
54945;SDS011;40846;44.788;20.486;2023-05-01T07:41:32;19.52;;;10.05;;
54945;SDS011;40846;44.788;20.486;2023-05-01T07:43:58;32.13;;;26.35;;
54945;SDS011;40846;44.788;20.486;2023-05-01T07:46:24;15.13;;;10.13;;
54945;SDS011;40846;44.788;20.486;2023-05-01T07:48:51;17.77;;;9.35;;
54945;SDS011;40846;44.788;20.486;2023-05-01T07:51:16;20.10;;;10.35;;
54945;SDS011;40846;44.788;20.486;2023-05-01T07:53:43;17.30;;;11.05;;
54945;SDS011;40846;44.788;20.486;2023-05-01T07:56:17;20.15;;;10.90;;
54945;SDS011;40846;44.788;20.486;2023-05-01T07:58:45;14.20;;;9.63;;
54945;SDS011;40846;44.788;20.486;2023-05-01T08:01:11;14.90;;;9.93;;
54945;SDS011;40846;44.788;20.486;2023-05-01T08:03:39;20.13;;;11.07;;
54945;SDS011;40846;44.788;20.486;2023-05-01T08:06:06;13.70;;;10.02;;
54945;SDS011;40846;44.788;20.486;2023-05-01T08:08:32;22.60;;;10.07;;
54945;SDS011;40846;44.788;20.486;2023-05-01T08:11:00;16.63;;;10.68;;
54945;SDS011;40846;44.788;20.486;2023-05-01T08:13:29;16.08;;;9.90;;
54945;SDS011;40846;44.788;20.486;2023-05-01T08:16:01;16.00;;;9.95;;
54945;SDS011;40846;44.788;20.486;2023-05-01T08:18:28;14.85;;;9.75;;
54945;SDS011;40846;44.788;20.486;2023-05-01T08:20:54;15.75;;;9.80;;
54945;SDS011;40846;44.788;20.486;2023-05-01T08:23:20;16.85;;;9.63;;
54945;SDS011;40846;44.788;20.486;2023-05-01T08:25:50;19.88;;;10.40;;
54945;SDS011;40846;44.788;20.486;2023-05-01T08:28:16;14.38;;;9.88;;
54945;SDS011;40846;44.788;20.486;2023-05-01T08:30:45;18.98;;;11.15;;
54945;SDS011;40846;44.788;20.486;2023-05-01T08:33:13;15.32;;;9.68;;
54945;SDS011;40846;44.788;20.486;2023-05-01T08:35:40;14.15;;;10.25;;
54945;SDS011;40846;44.788;20.486;2023-05-01T08:38:06;17.40;;;10.07;;
54945;SDS011;40846;44.788;20.486;2023-05-01T08:40:35;16.80;;;10.25;;
54945;SDS011;40846;44.788;20.486;2023-05-01T08:43:05;18.30;;;9.52;;
54945;SDS011;40846;44.788;20.486;2023-05-01T08:45:31;12.68;;;9.32;;
54945;SDS011;40846;44.788;20.486;2023-05-01T08:48:05;13.05;;;9.75;;
54945;SDS011;40846;44.788;20.486;2023-05-01T08:50:33;13.40;;;8.95;;
54945;SDS011;40846;44.788;20.486;2023-05-01T08:53:01;21.95;;;10.32;;
54945;SDS011;40846;44.788;20.486;2023-05-01T08:55:27;14.45;;;9.65;;
54945;SDS011;40846;44.788;20.486;2023-05-01T08:57:55;15.00;;;10.05;;
54945;SDS011;40846;44.788;20.486;2023-05-01T09:00:23;13.98;;;9.32;;
54945;SDS011;40846;44.788;20.486;2023-05-01T09:02:50;19.60;;;10.20;;
54945;SDS011;40846;44.788;20.486;2023-05-01T09:05:17;14.60;;;8.52;;
54945;SDS011;40846;44.788;20.486;2023-05-01T09:07:44;12.48;;;9.10;;
54945;SDS011;40846;44.788;20.486;2023-05-01T09:10:19;14.60;;;8.02;;
54945;SDS011;40846;44.788;20.486;2023-05-01T09:12:50;14.10;;;9.70;;
54945;SDS011;40846;44.788;20.486;2023-05-01T09:15:18;15.77;;;8.68;;
54945;SDS011;40846;44.788;20.486;2023-05-01T09:17:45;12.40;;;9.10;;
54945;SDS011;40846;44.788;20.486;2023-05-01T09:20:12;17.05;;;8.90;;
54945;SDS011;40846;44.788;20.486;2023-05-01T09:22:38;14.00;;;8.77;;
54945;SDS011;40846;44.788;20.486;2023-05-01T09:25:05;12.32;;;7.95;;
54945;SDS011;40846;44.788;20.486;2023-05-01T09:27:34;12.63;;;8.15;;
54945;SDS011;40846;44.788;20.486;2023-05-01T09:30:00;22.77;;;8.63;;
54945;SDS011;40846;44.788;20.486;2023-05-01T09:32:26;17.80;;;8.85;;
54945;SDS011;40846;44.788;20.486;2023-05-01T09:34:52;14.32;;;8.27;;
54945;SDS011;40846;44.788;20.486;2023-05-01T09:42:30;15.23;;;8.80;;
54945;SDS011;40846;44.788;20.486;2023-05-01T09:44:58;10.15;;;7.70;;
54945;SDS011;40846;44.788;20.486;2023-05-01T09:47:24;18.95;;;8.32;;
54945;SDS011;40846;44.788;20.486;2023-05-01T09:49:54;9.48;;;7.60;;
54945;SDS011;40846;44.788;20.486;2023-05-01T09:52:30;15.02;;;7.90;;
54945;SDS011;40846;44.788;20.486;2023-05-01T09:55:16;9.70;;;7.75;;
54945;SDS011;40846;44.788;20.486;2023-05-01T09:57:44;14.93;;;8.85;;
54945;SDS011;40846;44.788;20.486;2023-05-01T10:00:11;16.17;;;8.63;;
54945;SDS011;40846;44.788;20.486;2023-05-01T10:02:40;12.63;;;8.30;;
54945;SDS011;40846;44.788;20.486;2023-05-01T10:05:08;17.42;;;8.48;;
54945;SDS011;40846;44.788;20.486;2023-05-01T10:07:35;14.93;;;9.25;;
54945;SDS011;40846;44.788;20.486;2023-05-01T10:10:14;15.48;;;9.20;;
54945;SDS011;40846;44.788;20.486;2023-05-01T10:12:43;14.02;;;9.43;;
54945;SDS011;40846;44.788;20.486;2023-05-01T10:15:09;13.82;;;9.48;;
54945;SDS011;40846;44.788;20.486;2023-05-01T10:17:38;12.25;;;8.68;;
54945;SDS011;40846;44.788;20.486;2023-05-01T10:20:05;15.13;;;8.80;;
54945;SDS011;40846;44.788;20.486;2023-05-01T10:22:32;14.30;;;9.52;;
54945;SDS011;40846;44.788;20.486;2023-05-01T10:24:58;14.45;;;9.05;;
54945;SDS011;40846;44.788;20.486;2023-05-01T10:27:25;13.05;;;8.65;;
54945;SDS011;40846;44.788;20.486;2023-05-01T10:29:52;16.58;;;8.73;;
54945;SDS011;40846;44.788;20.486;2023-05-01T10:32:19;22.10;;;10.23;;
54945;SDS011;40846;44.788;20.486;2023-05-01T10:34:46;12.18;;;8.43;;
54945;SDS011;40846;44.788;20.486;2023-05-01T10:37:16;14.23;;;8.98;;
54945;SDS011;40846;44.788;20.486;2023-05-01T10:39:43;19.65;;;8.15;;
54945;SDS011;40846;44.788;20.486;2023-05-01T10:42:10;22.95;;;8.57;;
54945;SDS011;40846;44.788;20.486;2023-05-01T10:44:38;15.48;;;8.27;;
54945;SDS011;40846;44.788;20.486;2023-05-01T10:50:02;11.95;;;7.60;;
54945;SDS011;40846;44.788;20.486;2023-05-01T10:58:09;11.43;;;7.35;;
54945;SDS011;40846;44.788;20.486;2023-05-01T11:00:35;10.60;;;7.55;;
54945;SDS011;40846;44.788;20.486;2023-05-01T11:16:41;15.32;;;8.75;;
54945;SDS011;40846;44.788;20.486;2023-05-01T11:19:07;16.80;;;9.05;;
54945;SDS011;40846;44.788;20.486;2023-05-01T11:21:34;15.05;;;7.93;;
54945;SDS011;40846;44.788;20.486;2023-05-01T11:24:03;13.15;;;7.65;;
54945;SDS011;40846;44.788;20.486;2023-05-01T11:26:30;16.02;;;7.78;;
54945;SDS011;40846;44.788;20.486;2023-05-01T11:28:57;11.25;;;7.30;;
54945;SDS011;40846;44.788;20.486;2023-05-01T11:31:26;12.93;;;7.97;;
54945;SDS011;40846;44.788;20.486;2023-05-01T11:33:56;12.18;;;7.25;;
54945;SDS011;40846;44.788;20.486;2023-05-01T11:36:24;13.05;;;6.55;;
54945;SDS011;40846;44.788;20.486;2023-05-01T11:38:54;9.93;;;5.73;;
54945;SDS011;40846;44.788;20.486;2023-05-01T11:41:23;9.35;;;5.57;;
54945;SDS011;40846;44.788;20.486;2023-05-01T11:43:50;6.00;;;4.50;;
54945;SDS011;40846;44.788;20.486;2023-05-01T11:46:30;8.82;;;4.78;;
54945;SDS011;40846;44.788;20.486;2023-05-01T11:48:56;6.30;;;3.85;;
54945;SDS011;40846;44.788;20.486;2023-05-01T11:51:23;8.00;;;4.72;;
54945;SDS011;40846;44.788;20.486;2023-05-01T11:54:08;8.95;;;4.18;;
54945;SDS011;40846;44.788;20.486;2023-05-01T11:56:35;8.57;;;4.13;;
54945;SDS011;40846;44.788;20.486;2023-05-01T11:59:10;6.40;;;3.83;;
54945;SDS011;40846;44.788;20.486;2023-05-01T12:01:40;7.72;;;4.20;;
54945;SDS011;40846;44.788;20.486;2023-05-01T12:04:08;5.90;;;3.97;;
54945;SDS011;40846;44.788;20.486;2023-05-01T12:06:38;11.48;;;3.70;;
54945;SDS011;40846;44.788;20.486;2023-05-01T12:09:14;6.28;;;3.58;;
54945;SDS011;40846;44.788;20.486;2023-05-01T12:11:47;7.72;;;3.70;;
54945;SDS011;40846;44.788;20.486;2023-05-01T12:14:14;5.43;;;3.75;;
54945;SDS011;40846;44.788;20.486;2023-05-01T12:16:40;7.65;;;3.78;;
54945;SDS011;40846;44.788;20.486;2023-05-01T12:19:07;9.00;;;3.40;;
54945;SDS011;40846;44.788;20.486;2023-05-01T12:21:33;10.70;;;3.42;;
54945;SDS011;40846;44.788;20.486;2023-05-01T12:24:09;6.82;;;3.63;;
54945;SDS011;40846;44.788;20.486;2023-05-01T12:26:37;7.22;;;4.30;;
54945;SDS011;40846;44.788;20.486;2023-05-01T12:29:04;7.07;;;3.70;;
54945;SDS011;40846;44.788;20.486;2023-05-01T12:31:31;10.63;;;3.60;;
54945;SDS011;40846;44.788;20.486;2023-05-01T12:36:24;9.57;;;3.85;;
54945;SDS011;40846;44.788;20.486;2023-05-01T12:38:54;4.82;;;3.40;;
54945;SDS011;40846;44.788;20.486;2023-05-01T12:41:23;6.15;;;3.33;;
54945;SDS011;40846;44.788;20.486;2023-05-01T12:43:57;6.95;;;3.28;;
54945;SDS011;40846;44.788;20.486;2023-05-01T12:46:24;8.25;;;3.15;;
54945;SDS011;40846;44.788;20.486;2023-05-01T12:48:50;6.47;;;3.60;;
54945;SDS011;40846;44.788;20.486;2023-05-01T12:51:17;5.03;;;3.30;;
54945;SDS011;40846;44.788;20.486;2023-05-01T12:53:43;5.20;;;3.03;;
54945;SDS011;40846;44.788;20.486;2023-05-01T12:56:16;7.78;;;3.65;;
54945;SDS011;40846;44.788;20.486;2023-05-01T12:58:46;7.07;;;2.97;;
54945;SDS011;40846;44.788;20.486;2023-05-01T13:01:21;3.88;;;2.90;;
54945;SDS011;40846;44.788;20.486;2023-05-01T13:03:48;4.30;;;2.90;;
54945;SDS011;40846;44.788;20.486;2023-05-01T13:06:15;5.45;;;3.67;;
54945;SDS011;40846;44.788;20.486;2023-05-01T13:08:43;7.47;;;3.70;;
54945;SDS011;40846;44.788;20.486;2023-05-01T13:11:13;5.75;;;3.40;;
54945;SDS011;40846;44.788;20.486;2023-05-01T13:13:40;11.65;;;6.63;;
54945;SDS011;40846;44.788;20.486;2023-05-01T13:16:11;5.68;;;3.45;;
54945;SDS011;40846;44.788;20.486;2023-05-01T13:18:44;7.88;;;3.58;;
54945;SDS011;40846;44.788;20.486;2023-05-01T13:21:11;6.20;;;3.80;;
54945;SDS011;40846;44.788;20.486;2023-05-01T13:23:39;4.68;;;3.03;;
54945;SDS011;40846;44.788;20.486;2023-05-01T13:26:06;5.97;;;3.08;;
54945;SDS011;40846;44.788;20.486;2023-05-01T13:28:33;8.93;;;3.72;;
54945;SDS011;40846;44.788;20.486;2023-05-01T13:31:00;7.50;;;3.20;;
54945;SDS011;40846;44.788;20.486;2023-05-01T13:33:27;5.38;;;3.08;;
54945;SDS011;40846;44.788;20.486;2023-05-01T13:35:56;4.80;;;3.10;;
54945;SDS011;40846;44.788;20.486;2023-05-01T13:38:23;7.45;;;3.20;;
54945;SDS011;40846;44.788;20.486;2023-05-01T13:40:49;7.53;;;3.15;;
54945;SDS011;40846;44.788;20.486;2023-05-01T13:43:15;5.32;;;2.97;;
54945;SDS011;40846;44.788;20.486;2023-05-01T13:45:42;6.63;;;3.90;;
54945;SDS011;40846;44.788;20.486;2023-05-01T13:48:08;7.53;;;4.65;;
54945;SDS011;40846;44.788;20.486;2023-05-01T13:50:34;7.13;;;2.70;;
54945;SDS011;40846;44.788;20.486;2023-05-01T13:53:04;5.03;;;3.28;;
54945;SDS011;40846;44.788;20.486;2023-05-01T13:55:31;9.20;;;4.55;;
54945;SDS011;40846;44.788;20.486;2023-05-01T13:57:57;6.45;;;3.65;;
54945;SDS011;40846;44.788;20.486;2023-05-01T14:00:26;5.85;;;3.22;;
54945;SDS011;40846;44.788;20.486;2023-05-01T14:02:53;8.88;;;3.30;;
54945;SDS011;40846;44.788;20.486;2023-05-01T14:05:22;5.13;;;3.17;;
54945;SDS011;40846;44.788;20.486;2023-05-01T14:07:52;5.07;;;2.90;;
54945;SDS011;40846;44.788;20.486;2023-05-01T14:10:19;6.05;;;3.47;;
54945;SDS011;40846;44.788;20.486;2023-05-01T14:12:47;5.75;;;2.72;;
54945;SDS011;40846;44.788;20.486;2023-05-01T14:15:13;7.50;;;3.15;;
54945;SDS011;40846;44.788;20.486;2023-05-01T14:17:39;5.90;;;2.83;;
54945;SDS011;40846;44.788;20.486;2023-05-01T14:20:06;7.82;;;2.55;;
54945;SDS011;40846;44.788;20.486;2023-05-01T14:22:42;6.28;;;2.40;;
54945;SDS011;40846;44.788;20.486;2023-05-01T14:25:29;6.68;;;2.63;;
54945;SDS011;40846;44.788;20.486;2023-05-01T14:27:55;7.70;;;2.95;;
54945;SDS011;40846;44.788;20.486;2023-05-01T14:32:47;5.28;;;2.95;;
54945;SDS011;40846;44.788;20.486;2023-05-01T14:35:13;6.40;;;3.00;;
54945;SDS011;40846;44.788;20.486;2023-05-01T14:37:41;5.43;;;2.85;;
54945;SDS011;40846;44.788;20.486;2023-05-01T14:40:10;8.07;;;3.13;;
54945;SDS011;40846;44.788;20.486;2023-05-01T14:42:40;7.53;;;3.55;;
54945;SDS011;40846;44.788;20.486;2023-05-01T14:45:08;7.30;;;3.13;;
54945;SDS011;40846;44.788;20.486;2023-05-01T14:47:35;4.78;;;2.70;;
54945;SDS011;40846;44.788;20.486;2023-05-01T14:50:04;6.57;;;2.80;;
54945;SDS011;40846;44.788;20.486;2023-05-01T14:52:31;6.35;;;3.10;;
54945;SDS011;40846;44.788;20.486;2023-05-01T14:54:57;5.00;;;2.63;;
54945;SDS011;40846;44.788;20.486;2023-05-01T14:57:23;7.30;;;3.20;;
54945;SDS011;40846;44.788;20.486;2023-05-01T14:59:49;13.88;;;3.50;;
54945;SDS011;40846;44.788;20.486;2023-05-01T15:02:15;8.50;;;3.70;;
54945;SDS011;40846;44.788;20.486;2023-05-01T15:04:42;8.70;;;3.50;;
54945;SDS011;40846;44.788;20.486;2023-05-01T15:07:11;7.95;;;2.72;;
54945;SDS011;40846;44.788;20.486;2023-05-01T15:09:39;15.93;;;3.30;;
54945;SDS011;40846;44.788;20.486;2023-05-01T15:12:06;4.78;;;3.03;;
54945;SDS011;40846;44.788;20.486;2023-05-01T15:14:33;6.15;;;2.65;;
54945;SDS011;40846;44.788;20.486;2023-05-01T15:17:00;4.70;;;3.13;;
54945;SDS011;40846;44.788;20.486;2023-05-01T15:19:26;7.03;;;2.88;;
54945;SDS011;40846;44.788;20.486;2023-05-01T15:21:52;6.80;;;2.85;;
54945;SDS011;40846;44.788;20.486;2023-05-01T15:24:18;5.95;;;2.97;;
54945;SDS011;40846;44.788;20.486;2023-05-01T15:26:45;4.82;;;2.92;;
54945;SDS011;40846;44.788;20.486;2023-05-01T15:29:11;6.50;;;2.80;;
54945;SDS011;40846;44.788;20.486;2023-05-01T15:31:37;9.93;;;3.35;;